sensor_id;sensor_type;location;lat;lon;timestamp;temperature;humidity
69084;SHT31;56185;48.526;9.044;2023-07-31T00:02:22;15.52;77.44
69084;SHT31;56185;48.526;9.044;2023-07-31T00:04:48;15.59;77.16
69084;SHT31;56185;48.526;9.044;2023-07-31T00:07:13;15.59;76.99
69084;SHT31;56185;48.526;9.044;2023-07-31T00:09:38;15.55;76.40
69084;SHT31;56185;48.526;9.044;2023-07-31T00:12:04;15.47;77.34
69084;SHT31;56185;48.526;9.044;2023-07-31T00:14:29;15.50;77.75
69084;SHT31;56185;48.526;9.044;2023-07-31T00:16:54;15.59;77.11
69084;SHT31;56185;48.526;9.044;2023-07-31T00:19:20;15.54;78.02
69084;SHT31;56185;48.526;9.044;2023-07-31T00:21:45;15.45;77.54
69084;SHT31;56185;48.526;9.044;2023-07-31T00:24:10;15.55;76.71
69084;SHT31;56185;48.526;9.044;2023-07-31T00:26:35;15.33;78.19
69084;SHT31;56185;48.526;9.044;2023-07-31T00:29:01;15.24;78.37
69084;SHT31;56185;48.526;9.044;2023-07-31T00:31:26;15.14;78.70
69084;SHT31;56185;48.526;9.044;2023-07-31T00:33:51;15.22;78.53
69084;SHT31;56185;48.526;9.044;2023-07-31T00:36:22;15.40;77.66
69084;SHT31;56185;48.526;9.044;2023-07-31T00:38:47;15.27;78.21
69084;SHT31;56185;48.526;9.044;2023-07-31T00:41:12;15.33;78.55
69084;SHT31;56185;48.526;9.044;2023-07-31T00:43:37;15.35;77.66
69084;SHT31;56185;48.526;9.044;2023-07-31T00:46:02;15.26;77.99
69084;SHT31;56185;48.526;9.044;2023-07-31T00:48:28;15.11;78.81
69084;SHT31;56185;48.526;9.044;2023-07-31T00:50:53;15.11;79.60
69084;SHT31;56185;48.526;9.044;2023-07-31T00:53:19;15.24;77.84
69084;SHT31;56185;48.526;9.044;2023-07-31T00:55:44;15.24;78.25
69084;SHT31;56185;48.526;9.044;2023-07-31T00:58:21;15.30;78.00
69084;SHT31;56185;48.526;9.044;2023-07-31T01:00:46;15.17;77.70
69084;SHT31;56185;48.526;9.044;2023-07-31T01:03:11;15.16;78.15
69084;SHT31;56185;48.526;9.044;2023-07-31T01:05:52;15.19;77.86
69084;SHT31;56185;48.526;9.044;2023-07-31T01:08:42;14.97;77.93
69084;SHT31;56185;48.526;9.044;2023-07-31T01:11:29;15.02;78.61
69084;SHT31;56185;48.526;9.044;2023-07-31T01:13:55;14.90;79.66
69084;SHT31;56185;48.526;9.044;2023-07-31T01:16:21;14.93;79.18
69084;SHT31;56185;48.526;9.044;2023-07-31T01:18:46;14.97;78.88
69084;SHT31;56185;48.526;9.044;2023-07-31T01:26:45;15.02;78.58
69084;SHT31;56185;48.526;9.044;2023-07-31T01:29:27;14.93;78.75
69084;SHT31;56185;48.526;9.044;2023-07-31T01:32:01;14.89;78.69
69084;SHT31;56185;48.526;9.044;2023-07-31T01:34:27;14.79;78.37
69084;SHT31;56185;48.526;9.044;2023-07-31T01:37:03;14.79;79.17
69084;SHT31;56185;48.526;9.044;2023-07-31T01:39:28;14.77;79.01
69084;SHT31;56185;48.526;9.044;2023-07-31T01:41:54;14.73;78.76
69084;SHT31;56185;48.526;9.044;2023-07-31T01:44:19;14.71;79.20
69084;SHT31;56185;48.526;9.044;2023-07-31T01:47:00;14.83;77.98
69084;SHT31;56185;48.526;9.044;2023-07-31T01:49:25;14.79;78.07
69084;SHT31;56185;48.526;9.044;2023-07-31T01:51:51;14.68;79.17
69084;SHT31;56185;48.526;9.044;2023-07-31T01:54:30;14.63;78.52
69084;SHT31;56185;48.526;9.044;2023-07-31T01:56:56;14.71;78.77
69084;SHT31;56185;48.526;9.044;2023-07-31T01:59:21;14.69;78.02
69084;SHT31;56185;48.526;9.044;2023-07-31T02:01:46;14.65;79.33
69084;SHT31;56185;48.526;9.044;2023-07-31T02:04:11;14.45;79.08
69084;SHT31;56185;48.526;9.044;2023-07-31T02:06:37;14.58;79.28
69084;SHT31;56185;48.526;9.044;2023-07-31T02:09:02;14.55;79.07
69084;SHT31;56185;48.526;9.044;2023-07-31T02:11:28;14.39;79.90
69084;SHT31;56185;48.526;9.044;2023-07-31T02:13:53;14.29;79.81
69084;SHT31;56185;48.526;9.044;2023-07-31T02:16:18;14.31;79.85
69084;SHT31;56185;48.526;9.044;2023-07-31T02:18:43;14.35;80.05
69084;SHT31;56185;48.526;9.044;2023-07-31T02:21:10;14.34;79.92
69084;SHT31;56185;48.526;9.044;2023-07-31T02:23:37;14.35;79.79
69084;SHT31;56185;48.526;9.044;2023-07-31T02:26:02;14.35;80.54
69084;SHT31;56185;48.526;9.044;2023-07-31T02:28:28;14.35;79.57
69084;SHT31;56185;48.526;9.044;2023-07-31T02:30:58;14.17;79.98
69084;SHT31;56185;48.526;9.044;2023-07-31T02:33:23;14.15;80.85
69084;SHT31;56185;48.526;9.044;2023-07-31T02:35:48;14.08;81.33
69084;SHT31;56185;48.526;9.044;2023-07-31T02:38:13;14.13;80.90
69084;SHT31;56185;48.526;9.044;2023-07-31T02:40:39;14.21;80.70
69084;SHT31;56185;48.526;9.044;2023-07-31T02:43:05;14.11;81.43
69084;SHT31;56185;48.526;9.044;2023-07-31T02:45:30;14.10;81.58
69084;SHT31;56185;48.526;9.044;2023-07-31T02:47:55;14.08;80.92
69084;SHT31;56185;48.526;9.044;2023-07-31T02:50:20;14.17;81.16
69084;SHT31;56185;48.526;9.044;2023-07-31T02:52:46;14.14;81.21
69084;SHT31;56185;48.526;9.044;2023-07-31T02:55:11;13.98;81.79
69084;SHT31;56185;48.526;9.044;2023-07-31T02:57:36;14.04;81.54
69084;SHT31;56185;48.526;9.044;2023-07-31T03:00:02;14.05;81.05
69084;SHT31;56185;48.526;9.044;2023-07-31T03:02:27;14.04;81.07
69084;SHT31;56185;48.526;9.044;2023-07-31T03:04:53;14.07;81.21
69084;SHT31;56185;48.526;9.044;2023-07-31T03:07:18;14.04;80.87
69084;SHT31;56185;48.526;9.044;2023-07-31T03:09:43;13.96;80.89
69084;SHT31;56185;48.526;9.044;2023-07-31T03:12:09;13.96;81.11
69084;SHT31;56185;48.526;9.044;2023-07-31T03:14:34;13.86;81.69
69084;SHT31;56185;48.526;9.044;2023-07-31T03:17:07;13.83;81.29
69084;SHT31;56185;48.526;9.044;2023-07-31T03:19:33;13.94;81.47
69084;SHT31;56185;48.526;9.044;2023-07-31T03:21:59;13.87;82.11
69084;SHT31;56185;48.526;9.044;2023-07-31T03:24:24;13.98;81.52
69084;SHT31;56185;48.526;9.044;2023-07-31T03:26:49;14.07;80.45
69084;SHT31;56185;48.526;9.044;2023-07-31T03:29:14;13.97;80.85
69084;SHT31;56185;48.526;9.044;2023-07-31T03:31:40;14.00;81.09
69084;SHT31;56185;48.526;9.044;2023-07-31T03:34:05;13.97;81.10
69084;SHT31;56185;48.526;9.044;2023-07-31T03:36:30;13.93;81.21
69084;SHT31;56185;48.526;9.044;2023-07-31T03:38:55;14.04;80.46
69084;SHT31;56185;48.526;9.044;2023-07-31T03:41:21;14.04;80.46
69084;SHT31;56185;48.526;9.044;2023-07-31T03:43:49;14.15;80.36
69084;SHT31;56185;48.526;9.044;2023-07-31T03:46:14;14.15;79.87
69084;SHT31;56185;48.526;9.044;2023-07-31T03:48:39;14.17;79.22
69084;SHT31;56185;48.526;9.044;2023-07-31T03:51:04;14.17;78.63
69084;SHT31;56185;48.526;9.044;2023-07-31T03:53:49;14.28;78.84
69084;SHT31;56185;48.526;9.044;2023-07-31T03:56:14;14.24;79.53
69084;SHT31;56185;48.526;9.044;2023-07-31T03:58:40;14.13;78.58
69084;SHT31;56185;48.526;9.044;2023-07-31T04:01:14;14.11;79.36
69084;SHT31;56185;48.526;9.044;2023-07-31T04:03:39;14.17;78.75
69084;SHT31;56185;48.526;9.044;2023-07-31T04:06:04;14.18;79.44
69084;SHT31;56185;48.526;9.044;2023-07-31T04:08:31;14.18;78.46
69084;SHT31;56185;48.526;9.044;2023-07-31T04:10:57;14.10;79.93
69084;SHT31;56185;48.526;9.044;2023-07-31T04:13:22;14.13;78.53
69084;SHT31;56185;48.526;9.044;2023-07-31T04:15:48;14.07;79.75
69084;SHT31;56185;48.526;9.044;2023-07-31T04:18:14;14.14;78.57
69084;SHT31;56185;48.526;9.044;2023-07-31T04:20:39;14.15;80.30
69084;SHT31;56185;48.526;9.044;2023-07-31T04:23:04;14.18;79.17
69084;SHT31;56185;48.526;9.044;2023-07-31T04:25:29;14.11;78.81
69084;SHT31;56185;48.526;9.044;2023-07-31T04:27:54;14.08;79.62
69084;SHT31;56185;48.526;9.044;2023-07-31T04:30:20;14.10;79.79
69084;SHT31;56185;48.526;9.044;2023-07-31T04:32:58;14.05;79.98
69084;SHT31;56185;48.526;9.044;2023-07-31T04:35:48;14.03;80.58
69084;SHT31;56185;48.526;9.044;2023-07-31T04:38:13;14.03;80.16
69084;SHT31;56185;48.526;9.044;2023-07-31T04:40:38;14.05;80.40
69084;SHT31;56185;48.526;9.044;2023-07-31T04:43:03;13.94;81.04
69084;SHT31;56185;48.526;9.044;2023-07-31T04:45:29;13.98;82.06
69084;SHT31;56185;48.526;9.044;2023-07-31T04:47:54;14.11;80.61
69084;SHT31;56185;48.526;9.044;2023-07-31T04:50:19;14.20;80.28
69084;SHT31;56185;48.526;9.044;2023-07-31T04:52:44;14.31;79.50
69084;SHT31;56185;48.526;9.044;2023-07-31T04:55:10;14.35;79.18
69084;SHT31;56185;48.526;9.044;2023-07-31T04:57:35;14.38;78.97
69084;SHT31;56185;48.526;9.044;2023-07-31T05:00:00;14.46;79.43
69084;SHT31;56185;48.526;9.044;2023-07-31T05:02:25;14.61;79.29
69084;SHT31;56185;48.526;9.044;2023-07-31T05:04:51;14.54;79.01
69084;SHT31;56185;48.526;9.044;2023-07-31T05:07:16;14.56;79.03
69084;SHT31;56185;48.526;9.044;2023-07-31T05:09:41;14.62;78.72
69084;SHT31;56185;48.526;9.044;2023-07-31T05:12:06;14.71;78.45
69084;SHT31;56185;48.526;9.044;2023-07-31T05:14:32;14.73;78.09
69084;SHT31;56185;48.526;9.044;2023-07-31T05:16:57;14.68;79.17
69084;SHT31;56185;48.526;9.044;2023-07-31T05:19:22;14.73;79.01
69084;SHT31;56185;48.526;9.044;2023-07-31T05:21:47;14.75;79.42
69084;SHT31;56185;48.526;9.044;2023-07-31T05:24:13;14.86;78.43
69084;SHT31;56185;48.526;9.044;2023-07-31T05:26:38;14.92;78.27
69084;SHT31;56185;48.526;9.044;2023-07-31T05:29:03;15.02;78.60
69084;SHT31;56185;48.526;9.044;2023-07-31T05:31:29;15.06;77.95
69084;SHT31;56185;48.526;9.044;2023-07-31T05:33:54;15.13;77.83
69084;SHT31;56185;48.526;9.044;2023-07-31T05:36:19;15.22;77.36
69084;SHT31;56185;48.526;9.044;2023-07-31T05:38:44;15.40;76.62
69084;SHT31;56185;48.526;9.044;2023-07-31T05:41:11;15.51;76.41
69084;SHT31;56185;48.526;9.044;2023-07-31T05:43:37;15.52;76.52
69084;SHT31;56185;48.526;9.044;2023-07-31T05:46:02;15.57;76.32
69084;SHT31;56185;48.526;9.044;2023-07-31T05:48:27;15.52;76.18
69084;SHT31;56185;48.526;9.044;2023-07-31T05:50:54;15.65;76.47
69084;SHT31;56185;48.526;9.044;2023-07-31T05:53:19;15.69;76.43
69084;SHT31;56185;48.526;9.044;2023-07-31T05:55:44;15.74;76.34
69084;SHT31;56185;48.526;9.044;2023-07-31T05:58:10;15.85;76.84
69084;SHT31;56185;48.526;9.044;2023-07-31T06:00:35;15.86;76.89
69084;SHT31;56185;48.526;9.044;2023-07-31T06:03:00;15.91;76.39
69084;SHT31;56185;48.526;9.044;2023-07-31T06:05:25;15.89;75.84
69084;SHT31;56185;48.526;9.044;2023-07-31T06:07:51;15.93;76.81
69084;SHT31;56185;48.526;9.044;2023-07-31T06:10:16;15.91;77.69
69084;SHT31;56185;48.526;9.044;2023-07-31T06:12:41;15.89;78.12
69084;SHT31;56185;48.526;9.044;2023-07-31T06:15:06;15.96;79.04
69084;SHT31;56185;48.526;9.044;2023-07-31T06:17:32;15.99;78.87
69084;SHT31;56185;48.526;9.044;2023-07-31T06:19:57;15.99;79.82
69084;SHT31;56185;48.526;9.044;2023-07-31T06:22:22;15.98;79.71
69084;SHT31;56185;48.526;9.044;2023-07-31T06:24:48;15.98;79.76
69084;SHT31;56185;48.526;9.044;2023-07-31T06:27:13;16.06;79.59
69084;SHT31;56185;48.526;9.044;2023-07-31T06:29:38;16.14;80.07
69084;SHT31;56185;48.526;9.044;2023-07-31T06:32:03;16.13;79.50
69084;SHT31;56185;48.526;9.044;2023-07-31T06:34:29;16.27;79.62
69084;SHT31;56185;48.526;9.044;2023-07-31T06:36:57;16.33;79.81
69084;SHT31;56185;48.526;9.044;2023-07-31T06:39:23;16.32;79.69
69084;SHT31;56185;48.526;9.044;2023-07-31T06:41:48;16.36;78.61
69084;SHT31;56185;48.526;9.044;2023-07-31T06:44:13;16.40;79.99
69084;SHT31;56185;48.526;9.044;2023-07-31T06:46:38;16.56;77.53
69084;SHT31;56185;48.526;9.044;2023-07-31T06:49:04;16.64;76.70
69084;SHT31;56185;48.526;9.044;2023-07-31T06:51:29;16.68;77.00
69084;SHT31;56185;48.526;9.044;2023-07-31T06:53:54;16.77;77.19
69084;SHT31;56185;48.526;9.044;2023-07-31T06:56:20;16.77;76.84
69084;SHT31;56185;48.526;9.044;2023-07-31T06:58:46;16.85;76.84
69084;SHT31;56185;48.526;9.044;2023-07-31T07:01:11;16.89;74.74
69084;SHT31;56185;48.526;9.044;2023-07-31T07:03:36;16.88;75.65
69084;SHT31;56185;48.526;9.044;2023-07-31T07:06:01;16.98;75.73
69084;SHT31;56185;48.526;9.044;2023-07-31T07:08:26;17.09;75.16
69084;SHT31;56185;48.526;9.044;2023-07-31T07:10:52;17.15;73.09
69084;SHT31;56185;48.526;9.044;2023-07-31T07:13:17;17.12;73.80
69084;SHT31;56185;48.526;9.044;2023-07-31T07:15:42;17.19;72.79
69084;SHT31;56185;48.526;9.044;2023-07-31T07:18:07;17.25;72.33
69084;SHT31;56185;48.526;9.044;2023-07-31T07:20:33;17.35;72.97
69084;SHT31;56185;48.526;9.044;2023-07-31T07:22:58;17.45;72.30
69084;SHT31;56185;48.526;9.044;2023-07-31T07:25:23;17.47;72.83
69084;SHT31;56185;48.526;9.044;2023-07-31T07:27:48;17.47;71.86
69084;SHT31;56185;48.526;9.044;2023-07-31T07:30:14;17.65;71.59
69084;SHT31;56185;48.526;9.044;2023-07-31T07:32:39;17.79;71.37
69084;SHT31;56185;48.526;9.044;2023-07-31T07:35:05;17.81;71.41
69084;SHT31;56185;48.526;9.044;2023-07-31T07:37:30;17.84;70.80
69084;SHT31;56185;48.526;9.044;2023-07-31T07:39:55;17.93;69.89
69084;SHT31;56185;48.526;9.044;2023-07-31T07:42:21;17.96;69.69
69084;SHT31;56185;48.526;9.044;2023-07-31T07:44:46;17.97;69.98
69084;SHT31;56185;48.526;9.044;2023-07-31T07:47:12;17.96;69.22
69084;SHT31;56185;48.526;9.044;2023-07-31T07:49:37;18.12;69.18
69084;SHT31;56185;48.526;9.044;2023-07-31T07:52:03;18.24;66.49
69084;SHT31;56185;48.526;9.044;2023-07-31T07:54:28;18.29;66.95
69084;SHT31;56185;48.526;9.044;2023-07-31T07:56:54;18.35;65.88
69084;SHT31;56185;48.526;9.044;2023-07-31T07:59:19;18.52;64.68
69084;SHT31;56185;48.526;9.044;2023-07-31T08:01:44;18.58;66.33
69084;SHT31;56185;48.526;9.044;2023-07-31T08:04:09;18.73;63.80
69084;SHT31;56185;48.526;9.044;2023-07-31T08:06:35;18.73;63.41
69084;SHT31;56185;48.526;9.044;2023-07-31T08:09:00;18.90;61.86
69084;SHT31;56185;48.526;9.044;2023-07-31T08:11:25;18.96;61.15
69084;SHT31;56185;48.526;9.044;2023-07-31T08:13:50;19.02;61.51
69084;SHT31;56185;48.526;9.044;2023-07-31T08:16:16;19.23;61.21
69084;SHT31;56185;48.526;9.044;2023-07-31T08:18:41;19.34;60.33
69084;SHT31;56185;48.526;9.044;2023-07-31T08:21:06;19.41;60.76
69084;SHT31;56185;48.526;9.044;2023-07-31T08:23:31;19.55;60.59
69084;SHT31;56185;48.526;9.044;2023-07-31T08:25:57;19.68;60.97
69084;SHT31;56185;48.526;9.044;2023-07-31T08:28:22;19.71;60.08
69084;SHT31;56185;48.526;9.044;2023-07-31T08:30:47;19.86;59.51
69084;SHT31;56185;48.526;9.044;2023-07-31T08:33:12;19.90;58.48
69084;SHT31;56185;48.526;9.044;2023-07-31T08:35:44;20.10;58.49
69084;SHT31;56185;48.526;9.044;2023-07-31T08:38:09;20.20;59.08
69084;SHT31;56185;48.526;9.044;2023-07-31T08:40:37;20.26;56.32
69084;SHT31;56185;48.526;9.044;2023-07-31T08:43:03;20.27;57.86
69084;SHT31;56185;48.526;9.044;2023-07-31T08:45:28;20.22;56.70
69084;SHT31;56185;48.526;9.044;2023-07-31T08:47:55;20.09;56.94
69084;SHT31;56185;48.526;9.044;2023-07-31T08:50:21;20.05;57.22
69084;SHT31;56185;48.526;9.044;2023-07-31T08:52:48;20.27;57.08
69084;SHT31;56185;48.526;9.044;2023-07-31T08:55:13;20.37;58.33
69084;SHT31;56185;48.526;9.044;2023-07-31T08:57:39;20.39;59.51
69084;SHT31;56185;48.526;9.044;2023-07-31T09:00:06;20.53;57.31
69084;SHT31;56185;48.526;9.044;2023-07-31T09:02:38;20.67;58.34
69084;SHT31;56185;48.526;9.044;2023-07-31T09:05:06;20.50;56.59
69084;SHT31;56185;48.526;9.044;2023-07-31T09:07:35;20.56;56.79
69084;SHT31;56185;48.526;9.044;2023-07-31T09:10:01;20.51;56.77
69084;SHT31;56185;48.526;9.044;2023-07-31T09:12:26;20.51;57.27
69084;SHT31;56185;48.526;9.044;2023-07-31T09:14:51;20.71;58.17
69084;SHT31;56185;48.526;9.044;2023-07-31T09:17:28;20.85;57.14
69084;SHT31;56185;48.526;9.044;2023-07-31T09:19:54;20.87;57.24
69084;SHT31;56185;48.526;9.044;2023-07-31T09:22:31;20.99;55.44
69084;SHT31;56185;48.526;9.044;2023-07-31T09:25:07;21.09;56.47
69084;SHT31;56185;48.526;9.044;2023-07-31T09:30:22;21.19;56.39
69084;SHT31;56185;48.526;9.044;2023-07-31T09:32:48;21.06;56.40
69084;SHT31;56185;48.526;9.044;2023-07-31T09:35:22;21.04;56.55
69084;SHT31;56185;48.526;9.044;2023-07-31T09:37:49;20.91;56.77
69084;SHT31;56185;48.526;9.044;2023-07-31T09:40:25;20.95;56.07
69084;SHT31;56185;48.526;9.044;2023-07-31T09:42:50;20.84;55.77
69084;SHT31;56185;48.526;9.044;2023-07-31T09:45:18;20.94;55.95
69084;SHT31;56185;48.526;9.044;2023-07-31T09:47:47;20.92;55.99
69084;SHT31;56185;48.526;9.044;2023-07-31T09:50:14;20.91;55.48
69084;SHT31;56185;48.526;9.044;2023-07-31T09:52:39;20.98;55.60
69084;SHT31;56185;48.526;9.044;2023-07-31T09:55:04;20.96;56.55
69084;SHT31;56185;48.526;9.044;2023-07-31T09:57:30;21.11;55.30
69084;SHT31;56185;48.526;9.044;2023-07-31T09:59:56;21.16;54.28
69084;SHT31;56185;48.526;9.044;2023-07-31T10:02:22;21.29;52.96
69084;SHT31;56185;48.526;9.044;2023-07-31T10:04:49;21.42;54.70
69084;SHT31;56185;48.526;9.044;2023-07-31T10:07:17;21.67;54.77
69084;SHT31;56185;48.526;9.044;2023-07-31T10:09:43;21.73;53.35
69084;SHT31;56185;48.526;9.044;2023-07-31T10:12:10;21.87;52.09
69084;SHT31;56185;48.526;9.044;2023-07-31T10:14:37;21.98;53.21
69084;SHT31;56185;48.526;9.044;2023-07-31T10:17:03;22.10;53.01
69084;SHT31;56185;48.526;9.044;2023-07-31T10:19:30;22.14;52.79
69084;SHT31;56185;48.526;9.044;2023-07-31T10:21:56;22.24;52.12
69084;SHT31;56185;48.526;9.044;2023-07-31T10:24:23;22.25;52.01
69084;SHT31;56185;48.526;9.044;2023-07-31T10:26:50;22.31;51.00
69084;SHT31;56185;48.526;9.044;2023-07-31T10:29:17;22.35;51.49
69084;SHT31;56185;48.526;9.044;2023-07-31T10:31:44;22.42;51.33
69084;SHT31;56185;48.526;9.044;2023-07-31T10:34:10;22.49;51.19
69084;SHT31;56185;48.526;9.044;2023-07-31T10:36:35;22.61;51.47
69084;SHT31;56185;48.526;9.044;2023-07-31T10:39:03;22.51;50.06
69084;SHT31;56185;48.526;9.044;2023-07-31T10:41:32;22.56;51.18
69084;SHT31;56185;48.526;9.044;2023-07-31T10:43:59;22.62;50.63
69084;SHT31;56185;48.526;9.044;2023-07-31T10:46:24;22.71;52.47
69084;SHT31;56185;48.526;9.044;2023-07-31T10:48:58;22.77;50.72
69084;SHT31;56185;48.526;9.044;2023-07-31T10:51:23;22.79;49.44
69084;SHT31;56185;48.526;9.044;2023-07-31T10:53:48;22.83;51.36
69084;SHT31;56185;48.526;9.044;2023-07-31T10:56:14;23.03;49.20
69084;SHT31;56185;48.526;9.044;2023-07-31T10:58:39;23.09;50.68
69084;SHT31;56185;48.526;9.044;2023-07-31T11:01:05;23.24;50.50
69084;SHT31;56185;48.526;9.044;2023-07-31T11:03:48;23.34;50.36
69084;SHT31;56185;48.526;9.044;2023-07-31T11:06:14;23.40;49.88
69084;SHT31;56185;48.526;9.044;2023-07-31T11:08:45;23.53;50.00
69084;SHT31;56185;48.526;9.044;2023-07-31T11:11:15;23.61;49.21
69084;SHT31;56185;48.526;9.044;2023-07-31T11:13:44;23.78;49.16
69084;SHT31;56185;48.526;9.044;2023-07-31T11:16:13;23.98;47.96
69084;SHT31;56185;48.526;9.044;2023-07-31T11:18:40;24.15;48.24
69084;SHT31;56185;48.526;9.044;2023-07-31T11:21:05;24.25;48.71
69084;SHT31;56185;48.526;9.044;2023-07-31T11:23:31;24.35;47.89
69084;SHT31;56185;48.526;9.044;2023-07-31T11:25:59;24.33;47.88
69084;SHT31;56185;48.526;9.044;2023-07-31T11:28:25;24.44;47.07
69084;SHT31;56185;48.526;9.044;2023-07-31T11:30:50;24.50;47.12
69084;SHT31;56185;48.526;9.044;2023-07-31T11:33:15;24.44;47.50
69084;SHT31;56185;48.526;9.044;2023-07-31T11:35:45;24.59;45.74
69084;SHT31;56185;48.526;9.044;2023-07-31T11:38:12;24.47;47.42
69084;SHT31;56185;48.526;9.044;2023-07-31T11:40:43;24.43;48.21
69084;SHT31;56185;48.526;9.044;2023-07-31T11:43:09;24.32;47.66
69084;SHT31;56185;48.526;9.044;2023-07-31T11:45:35;24.30;46.98
69084;SHT31;56185;48.526;9.044;2023-07-31T11:48:01;24.28;48.39
69084;SHT31;56185;48.526;9.044;2023-07-31T11:50:26;24.13;48.03
69084;SHT31;56185;48.526;9.044;2023-07-31T11:52:57;23.99;48.01
69084;SHT31;56185;48.526;9.044;2023-07-31T11:55:25;23.98;48.21
69084;SHT31;56185;48.526;9.044;2023-07-31T11:57:51;23.88;49.55
69084;SHT31;56185;48.526;9.044;2023-07-31T12:00:17;23.57;51.01
69084;SHT31;56185;48.526;9.044;2023-07-31T12:02:43;23.57;51.46
69084;SHT31;56185;48.526;9.044;2023-07-31T12:05:12;23.50;51.82
69084;SHT31;56185;48.526;9.044;2023-07-31T12:07:45;23.53;55.67
69084;SHT31;56185;48.526;9.044;2023-07-31T12:10:11;23.33;54.32
69084;SHT31;56185;48.526;9.044;2023-07-31T12:12:36;23.17;53.33
69084;SHT31;56185;48.526;9.044;2023-07-31T12:15:02;23.12;56.63
69084;SHT31;56185;48.526;9.044;2023-07-31T12:17:27;23.12;56.75
69084;SHT31;56185;48.526;9.044;2023-07-31T12:19:52;23.09;57.65
69084;SHT31;56185;48.526;9.044;2023-07-31T12:22:20;23.09;58.60
69084;SHT31;56185;48.526;9.044;2023-07-31T12:24:45;22.92;55.83
69084;SHT31;56185;48.526;9.044;2023-07-31T12:27:11;23.09;55.82
69084;SHT31;56185;48.526;9.044;2023-07-31T12:29:38;23.12;56.08
69084;SHT31;56185;48.526;9.044;2023-07-31T12:32:03;23.20;53.03
69084;SHT31;56185;48.526;9.044;2023-07-31T12:34:28;23.06;53.90
69084;SHT31;56185;48.526;9.044;2023-07-31T12:36:54;23.28;53.88
69084;SHT31;56185;48.526;9.044;2023-07-31T12:39:19;23.36;52.93
69084;SHT31;56185;48.526;9.044;2023-07-31T12:41:44;23.53;52.86
69084;SHT31;56185;48.526;9.044;2023-07-31T12:44:10;23.70;50.64
69084;SHT31;56185;48.526;9.044;2023-07-31T12:46:35;23.85;50.44
69084;SHT31;56185;48.526;9.044;2023-07-31T12:49:00;23.88;51.30
69084;SHT31;56185;48.526;9.044;2023-07-31T12:51:25;23.91;51.39
69084;SHT31;56185;48.526;9.044;2023-07-31T12:53:51;23.77;50.25
69084;SHT31;56185;48.526;9.044;2023-07-31T12:56:16;23.71;50.78
69084;SHT31;56185;48.526;9.044;2023-07-31T12:58:41;23.62;51.13
69084;SHT31;56185;48.526;9.044;2023-07-31T13:01:06;23.72;51.68
69084;SHT31;56185;48.526;9.044;2023-07-31T13:03:35;23.74;51.93
69084;SHT31;56185;48.526;9.044;2023-07-31T13:06:00;23.67;51.12
69084;SHT31;56185;48.526;9.044;2023-07-31T13:08:25;23.67;52.76
69084;SHT31;56185;48.526;9.044;2023-07-31T13:10:50;23.82;51.93
69084;SHT31;56185;48.526;9.044;2023-07-31T13:13:16;23.82;50.20
69084;SHT31;56185;48.526;9.044;2023-07-31T13:15:41;23.68;50.24
69084;SHT31;56185;48.526;9.044;2023-07-31T13:18:06;23.58;50.37
69084;SHT31;56185;48.526;9.044;2023-07-31T13:20:31;23.58;50.33
69084;SHT31;56185;48.526;9.044;2023-07-31T13:22:57;23.61;49.58
69084;SHT31;56185;48.526;9.044;2023-07-31T13:25:22;23.55;47.99
69084;SHT31;56185;48.526;9.044;2023-07-31T13:27:47;23.43;47.83
69084;SHT31;56185;48.526;9.044;2023-07-31T13:30:13;23.16;48.75
69084;SHT31;56185;48.526;9.044;2023-07-31T13:32:38;23.21;47.97
69084;SHT31;56185;48.526;9.044;2023-07-31T13:35:06;23.26;49.11
69084;SHT31;56185;48.526;9.044;2023-07-31T13:37:32;22.98;48.80
69084;SHT31;56185;48.526;9.044;2023-07-31T13:39:57;22.99;49.12
69084;SHT31;56185;48.526;9.044;2023-07-31T13:42:22;22.98;48.97
69084;SHT31;56185;48.526;9.044;2023-07-31T13:44:48;22.77;49.17
69084;SHT31;56185;48.526;9.044;2023-07-31T13:47:13;22.76;50.67
69084;SHT31;56185;48.526;9.044;2023-07-31T13:49:38;22.72;49.72
69084;SHT31;56185;48.526;9.044;2023-07-31T13:52:03;22.53;49.71
69084;SHT31;56185;48.526;9.044;2023-07-31T13:54:29;22.51;50.05
69084;SHT31;56185;48.526;9.044;2023-07-31T13:56:54;22.58;49.82
69084;SHT31;56185;48.526;9.044;2023-07-31T13:59:20;22.59;49.76
69084;SHT31;56185;48.526;9.044;2023-07-31T14:01:45;22.61;49.91
69084;SHT31;56185;48.526;9.044;2023-07-31T14:04:11;22.61;50.21
69084;SHT31;56185;48.526;9.044;2023-07-31T14:06:36;22.59;50.73
69084;SHT31;56185;48.526;9.044;2023-07-31T14:09:02;22.68;51.44
69084;SHT31;56185;48.526;9.044;2023-07-31T14:11:28;22.69;52.49
69084;SHT31;56185;48.526;9.044;2023-07-31T14:13:53;22.85;51.74
69084;SHT31;56185;48.526;9.044;2023-07-31T14:16:19;22.92;51.54
69084;SHT31;56185;48.526;9.044;2023-07-31T14:18:44;22.93;52.29
69084;SHT31;56185;48.526;9.044;2023-07-31T14:21:09;22.88;52.44
69084;SHT31;56185;48.526;9.044;2023-07-31T14:23:34;22.89;51.78
69084;SHT31;56185;48.526;9.044;2023-07-31T14:26:00;22.89;52.43
69084;SHT31;56185;48.526;9.044;2023-07-31T14:28:25;22.79;52.07
69084;SHT31;56185;48.526;9.044;2023-07-31T14:30:50;22.89;51.29
69084;SHT31;56185;48.526;9.044;2023-07-31T14:33:15;22.83;50.75
69084;SHT31;56185;48.526;9.044;2023-07-31T14:35:41;22.68;51.99
69084;SHT31;56185;48.526;9.044;2023-07-31T14:38:06;22.58;52.85
69084;SHT31;56185;48.526;9.044;2023-07-31T14:40:31;22.72;52.04
69084;SHT31;56185;48.526;9.044;2023-07-31T14:42:57;22.71;52.17
69084;SHT31;56185;48.526;9.044;2023-07-31T14:45:22;22.72;50.90
69084;SHT31;56185;48.526;9.044;2023-07-31T14:47:47;22.72;51.20
69084;SHT31;56185;48.526;9.044;2023-07-31T14:50:12;22.75;52.21
69084;SHT31;56185;48.526;9.044;2023-07-31T14:52:38;22.76;52.05
69084;SHT31;56185;48.526;9.044;2023-07-31T14:55:03;22.72;51.79
69084;SHT31;56185;48.526;9.044;2023-07-31T14:57:29;22.51;53.14
69084;SHT31;56185;48.526;9.044;2023-07-31T14:59:54;22.56;52.81
69084;SHT31;56185;48.526;9.044;2023-07-31T15:02:19;22.58;52.75
69084;SHT31;56185;48.526;9.044;2023-07-31T15:04:45;22.51;52.55
69084;SHT31;56185;48.526;9.044;2023-07-31T15:07:10;22.62;53.53
69084;SHT31;56185;48.526;9.044;2023-07-31T15:09:35;22.65;53.37
69084;SHT31;56185;48.526;9.044;2023-07-31T15:12:00;22.75;52.66
69084;SHT31;56185;48.526;9.044;2023-07-31T15:14:26;22.75;53.02
69084;SHT31;56185;48.526;9.044;2023-07-31T15:16:51;22.85;52.85
69084;SHT31;56185;48.526;9.044;2023-07-31T15:19:16;22.93;53.03
69084;SHT31;56185;48.526;9.044;2023-07-31T15:21:42;22.98;53.25
69084;SHT31;56185;48.526;9.044;2023-07-31T15:24:07;22.93;53.60
69084;SHT31;56185;48.526;9.044;2023-07-31T15:26:32;22.98;53.67
69084;SHT31;56185;48.526;9.044;2023-07-31T15:29:04;22.96;53.67
69084;SHT31;56185;48.526;9.044;2023-07-31T15:31:30;22.93;54.43
69084;SHT31;56185;48.526;9.044;2023-07-31T15:33:55;22.98;53.80